Time;durP1;ratioP1;P1;durP2;ratioP2;P2;SDS_P1;SDS_P2;PMS_P1;PMS_P2;Temp;Humidity;BMP_temperature;BMP_pressure;BME280_temperature;BME280_humidity;BME280_pressure;Samples;Min_cycle;Max_cycle;Signal;HPM_P1;HPM_P2
2022/04/14 00:01:44;;;;;;;10.60;9.20;;;;;;;;;;5075847;28;24437;-52
2022/04/14 00:04:09;;;;;;;10.57;9.47;;;;;;;;;;5085023;28;24480;-54
2022/04/14 00:06:35;;;;;;;10.40;9.30;;;;;;;;;;5065894;28;24774;-53
2022/04/14 00:09:00;;;;;;;9.73;8.73;;;;;;;;;;5074329;28;24789;-53
2022/04/14 00:11:25;;;;;;;9.53;8.40;;;;;;;;;;5072320;28;24469;-53
2022/04/14 00:13:50;;;;;;;9.70;8.70;;;;;;;;;;5069625;28;24502;-53
2022/04/14 00:16:15;;;;;;;11.83;10.53;;;;;;;;;;5065936;28;24434;-52
2022/04/14 00:18:41;;;;;;;10.93;9.77;;;;;;;;;;5066527;28;24418;-53
2022/04/14 00:21:06;;;;;;;10.60;8.70;;;;;;;;;;5073264;28;24446;-53
2022/04/14 00:23:31;;;;;;;9.80;8.80;;;;;;;;;;5069760;28;24419;-53
2022/04/14 00:25:56;;;;;;;9.38;8.48;;;;;;;;;;5072441;28;24469;-53
2022/04/14 00:28:21;;;;;;;9.80;8.80;;;;;;;;;;5073376;28;24418;-53
2022/04/14 00:30:46;;;;;;;10.00;9.00;;;;;;;;;;5080658;28;24827;-53
2022/04/14 00:33:12;;;;;;;9.85;8.70;;;;;;;;;;5083705;28;24414;-53
2022/04/14 00:35:37;;;;;;;9.40;8.50;;;;;;;;;;5080265;28;24415;-52
2022/04/14 00:38:02;;;;;;;10.83;8.63;;;;;;;;;;5066263;28;24414;-52
2022/04/14 00:40:27;;;;;;;11.40;9.40;;;;;;;;;;5067859;28;24411;-52
2022/04/14 00:42:52;;;;;;;10.10;9.00;;;;;;;;;;5071069;28;24453;-53
2022/04/14 00:45:17;;;;;;;9.90;8.90;;;;;;;;;;5067005;28;24449;-53
2022/04/14 00:47:43;;;;;;;9.80;8.80;;;;;;;;;;5074053;28;24425;-53
2022/04/14 00:50:08;;;;;;;9.68;8.45;;;;;;;;;;5079105;28;24434;-53
2022/04/14 00:52:33;;;;;;;10.40;9.40;;;;;;;;;;5078078;28;24560;-53
2022/04/14 00:54:58;;;;;;;10.85;9.20;;;;;;;;;;5081478;28;24479;-53
2022/04/14 00:57:23;;;;;;;9.73;8.70;;;;;;;;;;5072431;28;25030;-53
2022/04/14 00:59:49;;;;;;;10.23;9.10;;;;;;;;;;5076182;28;24489;-54
2022/04/14 01:02:14;;;;;;;10.20;9.03;;;;;;;;;;5082895;28;24422;-52
2022/04/14 01:04:40;;;;;;;9.77;8.77;;;;;;;;;;5075569;28;24434;-52
2022/04/14 01:07:06;;;;;;;9.37;8.40;;;;;;;;;;5075167;28;24669;-53
2022/04/14 01:09:31;;;;;;;9.70;8.70;;;;;;;;;;5107760;28;24938;-53
2022/04/14 01:11:56;;;;;;;9.20;8.30;;;;;;;;;;5076782;28;24518;-53
2022/04/14 01:14:28;;;;;;;9.20;8.30;;;;;;;;;;5079183;28;24505;-53
2022/04/14 01:16:57;;;;;;;10.80;9.25;;;;;;;;;;5073454;28;24968;-53
2022/04/14 01:19:22;;;;;;;9.47;8.47;;;;;;;;;;5074364;28;24895;-53
2022/04/14 01:22:18;;;;;;;10.50;8.97;;;;;;;;;;5076170;28;24422;-53
2022/04/14 01:24:43;;;;;;;9.50;8.50;;;;;;;;;;5064057;28;24528;-51
2022/04/14 01:27:08;;;;;;;9.60;8.70;;;;;;;;;;5073313;28;24788;-53
2022/04/14 01:29:34;;;;;;;10.00;8.90;;;;;;;;;;5084051;28;24415;-53
2022/04/14 01:32:00;;;;;;;13.00;8.70;;;;;;;;;;5066884;28;24450;-53
2022/04/14 01:34:25;;;;;;;9.57;8.57;;;;;;;;;;5069455;28;24518;-54
2022/04/14 01:36:51;;;;;;;11.80;8.53;;;;;;;;;;5067981;28;24975;-53
2022/04/14 01:39:16;;;;;;;9.20;8.30;;;;;;;;;;5071455;28;24417;-53
2022/04/14 01:41:42;;;;;;;10.90;9.20;;;;;;;;;;5078482;28;24441;-53
2022/04/14 01:44:08;;;;;;;9.35;8.35;;;;;;;;;;5073784;28;25092;-53
2022/04/14 01:46:34;;;;;;;12.38;8.88;;;;;;;;;;5079929;28;24509;-53
2022/04/14 01:48:59;;;;;;;9.00;8.10;;;;;;;;;;5084442;28;25082;-54
2022/04/14 01:51:25;;;;;;;8.90;8.10;;;;;;;;;;5076012;28;24437;-53
2022/04/14 01:53:50;;;;;;;9.80;8.70;;;;;;;;;;5077940;28;24421;-52
2022/04/14 01:56:17;;;;;;;9.82;8.82;;;;;;;;;;5074552;28;24426;-53
2022/04/14 01:58:42;;;;;;;10.02;8.65;;;;;;;;;;5076319;28;24979;-53
2022/04/14 02:01:08;;;;;;;10.52;8.40;;;;;;;;;;5082513;28;24428;-52
2022/04/14 02:03:33;;;;;;;9.45;8.45;;;;;;;;;;5075594;28;24419;-52
2022/04/14 02:05:58;;;;;;;10.17;8.30;;;;;;;;;;5077767;28;24421;-53
2022/04/14 02:08:23;;;;;;;11.60;8.95;;;;;;;;;;5079208;28;25000;-53
2022/04/14 02:10:48;;;;;;;10.43;9.40;;;;;;;;;;5069416;28;24492;-54
2022/04/14 02:13:13;;;;;;;10.60;9.50;;;;;;;;;;5070201;28;24417;-53
2022/04/14 02:15:38;;;;;;;10.02;9.00;;;;;;;;;;5073686;28;24419;-53
2022/04/14 02:18:04;;;;;;;10.25;9.15;;;;;;;;;;5067123;28;24445;-54
2022/04/14 02:20:29;;;;;;;12.05;8.77;;;;;;;;;;5076024;28;24441;-53
2022/04/14 02:22:54;;;;;;;10.80;9.63;;;;;;;;;;5085875;28;24422;-53
2022/04/14 02:25:20;;;;;;;10.35;8.90;;;;;;;;;;5072462;28;24438;-53
2022/04/14 02:27:45;;;;;;;11.70;9.00;;;;;;;;;;5071270;28;24430;-52
2022/04/14 02:30:11;;;;;;;9.73;8.80;;;;;;;;;;5073904;28;24499;-53
2022/04/14 02:32:36;;;;;;;10.15;9.07;;;;;;;;;;5073198;28;25167;-53
2022/04/14 02:35:04;;;;;;;11.20;9.80;;;;;;;;;;5071551;28;25000;-53
2022/04/14 02:37:29;;;;;;;11.18;9.57;;;;;;;;;;5069525;28;24446;-53
2022/04/14 02:39:54;;;;;;;9.65;8.65;;;;;;;;;;5080986;28;24461;-53
2022/04/14 02:42:19;;;;;;;10.90;9.80;;;;;;;;;;5073823;28;25021;-53
2022/04/14 02:44:44;;;;;;;11.00;8.75;;;;;;;;;;5082895;28;24430;-53
2022/04/14 02:47:09;;;;;;;10.18;9.10;;;;;;;;;;5080928;28;24455;-54
2022/04/14 02:49:35;;;;;;;10.37;8.77;;;;;;;;;;5076472;28;24971;-53
2022/04/14 02:52:01;;;;;;;9.70;8.70;;;;;;;;;;5084201;28;24429;-53
2022/04/14 02:54:26;;;;;;;10.07;9.00;;;;;;;;;;5071645;28;24461;-53
2022/04/14 02:56:51;;;;;;;9.60;8.60;;;;;;;;;;5073502;28;24419;-53
2022/04/14 02:59:16;;;;;;;10.53;9.03;;;;;;;;;;5072633;28;24959;-53
2022/04/14 03:01:41;;;;;;;10.00;9.00;;;;;;;;;;5070762;28;25019;-54
2022/04/14 03:04:06;;;;;;;9.98;8.82;;;;;;;;;;5076749;28;24908;-53
2022/04/14 03:06:31;;;;;;;10.90;8.90;;;;;;;;;;5080952;28;24513;-53
2022/04/14 03:08:56;;;;;;;10.05;9.02;;;;;;;;;;5078173;28;24499;-53
2022/04/14 03:11:22;;;;;;;9.52;8.63;;;;;;;;;;5076700;28;24429;-53
2022/04/14 03:13:47;;;;;;;10.05;9.02;;;;;;;;;;5075756;28;24453;-52
2022/04/14 03:16:13;;;;;;;10.00;9.00;;;;;;;;;;5075970;28;24418;-53
2022/04/14 03:18:38;;;;;;;10.02;9.02;;;;;;;;;;5071447;28;25297;-53
2022/04/14 03:21:03;;;;;;;10.30;9.20;;;;;;;;;;5068718;28;24431;-53
2022/04/14 03:23:29;;;;;;;10.60;9.50;;;;;;;;;;5076289;28;24978;-52
2022/04/14 03:25:54;;;;;;;9.38;8.48;;;;;;;;;;5072461;28;24479;-53
2022/04/14 03:28:19;;;;;;;10.10;8.80;;;;;;;;;;5082522;28;24453;-53
2022/04/14 03:30:45;;;;;;;11.02;9.93;;;;;;;;;;5073325;28;24443;-53
2022/04/14 03:33:11;;;;;;;10.47;9.37;;;;;;;;;;5073094;28;24812;-53
2022/04/14 03:35:36;;;;;;;10.52;9.50;;;;;;;;;;5071126;28;26430;-54
2022/04/14 03:38:01;;;;;;;10.53;9.13;;;;;;;;;;5066982;28;24411;-54
2022/04/14 03:40:26;;;;;;;11.73;9.20;;;;;;;;;;5065929;28;24427;-54
2022/04/14 03:42:51;;;;;;;9.90;9.00;;;;;;;;;;5084231;28;24455;-54
2022/04/14 03:45:17;;;;;;;10.23;9.23;;;;;;;;;;5078789;28;24455;-54
2022/04/14 03:47:42;;;;;;;10.50;9.40;;;;;;;;;;5076977;28;24760;-54
2022/04/14 03:50:07;;;;;;;10.30;9.30;;;;;;;;;;5079631;28;24422;-54
2022/04/14 03:52:32;;;;;;;10.40;9.30;;;;;;;;;;5079998;28;24999;-54
2022/04/14 03:54:58;;;;;;;9.70;8.70;;;;;;;;;;5083605;28;24506;-53
2022/04/14 03:57:23;;;;;;;10.47;9.37;;;;;;;;;;5078956;28;24431;-53
2022/04/14 03:59:49;;;;;;;11.48;10.30;;;;;;;;;;5066402;28;24773;-53
2022/04/14 04:02:14;;;;;;;10.90;9.70;;;;;;;;;;5084815;28;24426;-53
2022/04/14 04:04:39;;;;;;;12.52;9.70;;;;;;;;;;5066432;28;24509;-52
2022/04/14 04:07:05;;;;;;;12.97;11.00;;;;;;;;;;5066281;28;24427;-53
2022/04/14 04:09:32;;;;;;;11.88;10.05;;;;;;;;;;5070993;28;24421;-54
2022/04/14 04:11:58;;;;;;;10.80;9.80;;;;;;;;;;5082473;28;24453;-53
2022/04/14 04:14:23;;;;;;;13.90;10.40;;;;;;;;;;5082591;28;25080;-52
2022/04/14 04:16:48;;;;;;;13.60;11.20;;;;;;;;;;5076264;28;24785;-52
2022/04/14 04:19:13;;;;;;;11.97;10.07;;;;;;;;;;5074549;28;25039;-53
2022/04/14 04:21:38;;;;;;;12.13;10.93;;;;;;;;;;5072583;28;24422;-53
2022/04/14 04:24:04;;;;;;;11.95;10.38;;;;;;;;;;5073557;28;25051;-54
2022/04/14 04:26:29;;;;;;;10.87;9.50;;;;;;;;;;5067097;28;24425;-53
2022/04/14 04:28:54;;;;;;;11.98;9.90;;;;;;;;;;5066431;28;24956;-53
2022/04/14 04:31:19;;;;;;;10.87;9.70;;;;;;;;;;5080314;28;24528;-53
2022/04/14 04:33:44;;;;;;;11.38;10.18;;;;;;;;;;5083531;28;24418;-53
2022/04/14 04:36:11;;;;;;;11.18;9.98;;;;;;;;;;5087255;28;24575;-54
2022/04/14 04:38:36;;;;;;;10.52;9.52;;;;;;;;;;5069912;28;24415;-54
2022/04/14 04:41:01;;;;;;;11.25;9.75;;;;;;;;;;5068403;28;24457;-52
2022/04/14 04:43:26;;;;;;;11.20;10.10;;;;;;;;;;5080718;28;24468;-53
2022/04/14 04:45:51;;;;;;;11.13;9.93;;;;;;;;;;5071575;28;24415;-53
2022/04/14 04:48:17;;;;;;;10.73;9.63;;;;;;;;;;5074329;28;24411;-53
2022/04/14 04:50:42;;;;;;;13.00;10.00;;;;;;;;;;5077493;28;24537;-52
2022/04/14 04:53:07;;;;;;;10.70;9.60;;;;;;;;;;5078003;28;24772;-53
2022/04/14 04:55:32;;;;;;;10.73;9.63;;;;;;;;;;5072253;28;24499;-53
2022/04/14 04:57:57;;;;;;;12.20;11.00;;;;;;;;;;5075645;28;24465;-53
2022/04/14 05:00:23;;;;;;;11.50;10.40;;;;;;;;;;5078419;28;24998;-53
2022/04/14 05:02:48;;;;;;;12.35;9.95;;;;;;;;;;5076356;28;24437;-53
2022/04/14 05:05:13;;;;;;;11.00;9.90;;;;;;;;;;5073585;28;24434;-53
2022/04/14 05:07:38;;;;;;;11.13;9.68;;;;;;;;;;5068653;28;24434;-53
2022/04/14 05:10:03;;;;;;;12.97;9.73;;;;;;;;;;5082285;28;24433;-53
2022/04/14 05:12:28;;;;;;;11.40;10.20;;;;;;;;;;5075000;28;25304;-53
2022/04/14 05:14:54;;;;;;;12.27;10.10;;;;;;;;;;5071422;28;24422;-53
2022/04/14 05:17:19;;;;;;;10.50;9.50;;;;;;;;;;5071898;28;24422;-52
2022/04/14 05:19:44;;;;;;;11.65;10.45;;;;;;;;;;5073482;28;25283;-54
2022/04/14 05:22:09;;;;;;;10.90;9.90;;;;;;;;;;5074457;28;24491;-54
2022/04/14 05:24:34;;;;;;;11.10;10.00;;;;;;;;;;5071761;28;24430;-54
2022/04/14 05:26:59;;;;;;;10.27;9.27;;;;;;;;;;5084062;28;24471;-54
2022/04/14 05:29:25;;;;;;;10.40;9.40;;;;;;;;;;5069139;28;24516;-52
2022/04/14 05:31:50;;;;;;;10.40;9.40;;;;;;;;;;5068982;28;24512;-53
2022/04/14 05:34:15;;;;;;;11.20;10.20;;;;;;;;;;5067933;28;24398;-52
2022/04/14 05:36:40;;;;;;;12.60;10.70;;;;;;;;;;5082611;28;24647;-52
2022/04/14 05:39:05;;;;;;;10.98;9.82;;;;;;;;;;5088889;28;24928;-52
2022/04/14 05:41:32;;;;;;;11.90;10.70;;;;;;;;;;5089009;28;24600;-52
2022/04/14 05:43:57;;;;;;;10.40;9.30;;;;;;;;;;5088976;28;24455;-53
2022/04/14 05:46:22;;;;;;;10.55;9.45;;;;;;;;;;5086987;28;24418;-53
2022/04/14 05:48:48;;;;;;;11.30;10.10;;;;;;;;;;5089313;28;24393;-52
2022/04/14 05:51:13;;;;;;;10.90;9.80;;;;;;;;;;5088894;28;24440;-52
2022/04/14 05:53:38;;;;;;;10.32;8.93;;;;;;;;;;5088885;28;24480;-53
2022/04/14 05:56:04;;;;;;;12.32;10.55;;;;;;;;;;5086970;28;24371;-52
2022/04/14 05:58:29;;;;;;;10.90;9.70;;;;;;;;;;5088587;28;24948;-52
2022/04/14 06:00:54;;;;;;;10.77;9.68;;;;;;;;;;5088802;28;24417;-53
2022/04/14 06:03:20;;;;;;;13.60;10.75;;;;;;;;;;5088688;28;24780;-53
2022/04/14 06:05:45;;;;;;;11.67;9.50;;;;;;;;;;5086654;28;24410;-53
2022/04/14 06:08:10;;;;;;;10.40;9.40;;;;;;;;;;5088793;28;24467;-53
2022/04/14 06:10:35;;;;;;;11.40;9.20;;;;;;;;;;5088266;28;24437;-53
2022/04/14 06:13:01;;;;;;;11.30;10.10;;;;;;;;;;5088275;28;24493;-52
2022/04/14 06:15:26;;;;;;;10.93;9.73;;;;;;;;;;5087663;28;24394;-52
2022/04/14 06:17:52;;;;;;;10.70;9.60;;;;;;;;;;5066822;28;24753;-52
2022/04/14 06:20:17;;;;;;;11.70;10.50;;;;;;;;;;5068068;28;24831;-53
2022/04/14 06:22:44;;;;;;;10.77;9.83;;;;;;;;;;5068239;28;24383;-52
2022/04/14 06:25:13;;;;;;;10.85;9.60;;;;;;;;;;5068234;28;24505;-54
2022/04/14 06:27:41;;;;;;;11.00;9.50;;;;;;;;;;5066431;28;24433;-53
2022/04/14 06:30:07;;;;;;;11.77;10.68;;;;;;;;;;5068080;28;24469;-52
2022/04/14 06:32:32;;;;;;;11.35;10.25;;;;;;;;;;5080207;28;24414;-53
2022/04/14 06:34:57;;;;;;;11.23;10.07;;;;;;;;;;5068333;28;24402;-52
2022/04/14 06:37:23;;;;;;;11.60;10.40;;;;;;;;;;5081981;28;24437;-52
2022/04/14 06:39:48;;;;;;;10.90;9.80;;;;;;;;;;5081933;28;24431;-53
2022/04/14 06:42:13;;;;;;;11.50;9.70;;;;;;;;;;5076053;28;24437;-53
2022/04/14 06:44:38;;;;;;;11.38;10.27;;;;;;;;;;5077558;28;24425;-53
2022/04/14 06:47:04;;;;;;;11.05;9.20;;;;;;;;;;5068001;28;24418;-54
2022/04/14 06:49:30;;;;;;;10.40;9.40;;;;;;;;;;5066838;28;24838;-53
2022/04/14 06:51:55;;;;;;;11.45;9.48;;;;;;;;;;5068978;28;24422;-53
2022/04/14 06:54:20;;;;;;;11.00;9.77;;;;;;;;;;5082755;28;24434;-54
2022/04/14 06:56:45;;;;;;;12.50;10.05;;;;;;;;;;5075528;28;24422;-53
2022/04/14 06:59:10;;;;;;;10.80;9.80;;;;;;;;;;5074747;28;24435;-53
2022/04/14 07:01:35;;;;;;;11.30;10.20;;;;;;;;;;5067556;28;24547;-53
2022/04/14 07:04:00;;;;;;;12.70;10.43;;;;;;;;;;5070293;28;24953;-53
2022/04/14 07:06:26;;;;;;;12.30;10.70;;;;;;;;;;5067548;28;24460;-53
2022/04/14 07:08:51;;;;;;;11.57;10.20;;;;;;;;;;5066538;28;24395;-53
2022/04/14 07:11:16;;;;;;;11.35;10.25;;;;;;;;;;5086694;28;24479;-54
2022/04/14 07:13:41;;;;;;;9.60;8.70;;;;;;;;;;5087239;28;24387;-53
2022/04/14 07:16:06;;;;;;;11.07;9.40;;;;;;;;;;5087595;28;24494;-53
2022/04/14 07:18:31;;;;;;;10.40;9.30;;;;;;;;;;5087132;28;24392;-54
2022/04/14 07:20:57;;;;;;;10.70;9.60;;;;;;;;;;5073296;28;24472;-54
2022/04/14 07:23:22;;;;;;;12.00;9.40;;;;;;;;;;5067026;28;24395;-53
2022/04/14 07:25:47;;;;;;;10.90;9.80;;;;;;;;;;5066775;28;24386;-53
2022/04/14 07:28:14;;;;;;;13.17;11.50;;;;;;;;;;5066940;28;24429;-54
2022/04/14 07:30:39;;;;;;;11.65;9.30;;;;;;;;;;5071991;28;24475;-53
2022/04/14 07:33:05;;;;;;;9.70;8.80;;;;;;;;;;5087295;28;24394;-53
2022/04/14 07:35:32;;;;;;;10.30;9.20;;;;;;;;;;5087297;28;24757;-53
2022/04/14 07:37:57;;;;;;;13.13;11.57;;;;;;;;;;5086846;28;24413;-53
2022/04/14 07:40:22;;;;;;;10.70;9.65;;;;;;;;;;5085149;28;24387;-53
2022/04/14 07:42:47;;;;;;;11.10;10.00;;;;;;;;;;5066683;28;24441;-53
2022/04/14 07:45:13;;;;;;;11.00;9.90;;;;;;;;;;5066908;28;24514;-53
2022/04/14 07:47:41;;;;;;;11.90;9.73;;;;;;;;;;5066543;28;24410;-53
2022/04/14 07:50:06;;;;;;;11.47;10.27;;;;;;;;;;5067048;28;24556;-53
2022/04/14 07:52:42;;;;;;;13.13;11.10;;;;;;;;;;5079119;28;24831;-53
2022/04/14 07:55:07;;;;;;;11.33;10.20;;;;;;;;;;5087047;28;24410;-52
2022/04/14 07:57:32;;;;;;;11.50;10.47;;;;;;;;;;5088417;28;24947;-52
2022/04/14 07:59:57;;;;;;;12.30;11.00;;;;;;;;;;5083541;28;24596;-53
2022/04/14 08:02:22;;;;;;;11.80;10.60;;;;;;;;;;5073141;28;24758;-53
2022/04/14 08:04:47;;;;;;;11.95;10.68;;;;;;;;;;5072895;28;24499;-53
2022/04/14 08:07:13;;;;;;;14.18;12.77;;;;;;;;;;5073423;28;24397;-53
2022/04/14 08:09:38;;;;;;;12.90;11.70;;;;;;;;;;5073158;28;24405;-53
2022/04/14 08:12:03;;;;;;;11.68;10.57;;;;;;;;;;5087262;28;24437;-53
2022/04/14 08:14:28;;;;;;;11.93;10.83;;;;;;;;;;5093580;28;24412;-53
2022/04/14 08:16:54;;;;;;;13.80;12.50;;;;;;;;;;5092920;28;24964;-52
2022/04/14 08:19:19;;;;;;;15.10;13.60;;;;;;;;;;5093460;28;24398;-53
2022/04/14 08:21:45;;;;;;;17.13;15.32;;;;;;;;;;5091905;28;25062;-53
2022/04/14 08:24:10;;;;;;;13.63;12.43;;;;;;;;;;5093196;28;24413;-53
2022/04/14 08:26:35;;;;;;;17.10;15.30;;;;;;;;;;5093169;28;24495;-53
2022/04/14 08:29:01;;;;;;;16.40;14.80;;;;;;;;;;5091732;28;24815;-53
2022/04/14 08:31:26;;;;;;;16.93;15.33;;;;;;;;;;5088698;28;24431;-53
2022/04/14 08:33:51;;;;;;;19.67;17.67;;;;;;;;;;5092552;28;24842;-53
2022/04/14 08:36:16;;;;;;;21.00;18.90;;;;;;;;;;5093471;28;24398;-52
2022/04/14 08:38:44;;;;;;;20.10;17.57;;;;;;;;;;5093260;28;24394;-53
2022/04/14 08:41:10;;;;;;;18.23;16.50;;;;;;;;;;5092860;28;24398;-53
2022/04/14 08:43:36;;;;;;;19.83;17.77;;;;;;;;;;5091457;28;24839;-53
2022/04/14 08:46:02;;;;;;;18.52;16.73;;;;;;;;;;5093249;28;24402;-52
2022/04/14 08:48:28;;;;;;;18.92;17.13;;;;;;;;;;5093386;28;24433;-54
2022/04/14 08:50:53;;;;;;;20.80;18.63;;;;;;;;;;5093101;28;24987;-53
2022/04/14 08:53:18;;;;;;;21.27;19.07;;;;;;;;;;5083987;28;24783;-54
2022/04/14 08:55:44;;;;;;;23.23;20.83;;;;;;;;;;5072729;28;24438;-54
2022/04/14 08:58:13;;;;;;;25.53;23.03;;;;;;;;;;5072891;28;24418;-54
2022/04/14 09:00:38;;;;;;;24.80;22.33;;;;;;;;;;5073120;28;24477;-53
2022/04/14 09:03:03;;;;;;;25.77;23.27;;;;;;;;;;5072409;28;24488;-53
2022/04/14 09:05:29;;;;;;;22.30;20.00;;;;;;;;;;5072547;28;25102;-53
2022/04/14 09:07:54;;;;;;;24.77;22.48;;;;;;;;;;5072982;28;24431;-53
2022/04/14 09:10:19;;;;;;;23.40;20.90;;;;;;;;;;5069689;28;24426;-53
2022/04/14 09:12:45;;;;;;;25.35;22.80;;;;;;;;;;5069760;28;24674;-53
2022/04/14 09:15:11;;;;;;;21.83;19.67;;;;;;;;;;5069952;28;24375;-54
2022/04/14 09:17:36;;;;;;;27.03;24.40;;;;;;;;;;5069203;28;24929;-53
2022/04/14 09:20:21;;;;;;;26.07;23.37;;;;;;;;;;5088694;28;24427;-53
2022/04/14 09:23:06;;;;;;;23.13;20.80;;;;;;;;;;5089217;28;24417;-53
2022/04/14 09:25:31;;;;;;;21.27;19.17;;;;;;;;;;5089082;28;24487;-52
2022/04/14 09:28:07;;;;;;;25.20;22.60;;;;;;;;;;5089433;28;24460;-53
2022/04/14 09:30:32;;;;;;;26.23;23.45;;;;;;;;;;5086880;28;24447;-52
2022/04/14 09:32:57;;;;;;;26.30;23.70;;;;;;;;;;5089496;28;24427;-53
2022/04/14 09:35:23;;;;;;;24.27;21.87;;;;;;;;;;5089035;28;24460;-53
2022/04/14 09:38:06;;;;;;;22.50;20.17;;;;;;;;;;5089087;28;24776;-52
2022/04/14 09:40:33;;;;;;;23.23;20.93;;;;;;;;;;5089042;28;24962;-53
2022/04/14 09:42:59;;;;;;;24.25;21.75;;;;;;;;;;5086884;28;24540;-53
2022/04/14 09:45:25;;;;;;;26.43;23.70;;;;;;;;;;5089075;28;24395;-53
2022/04/14 09:47:51;;;;;;;25.25;22.40;;;;;;;;;;5088702;28;24390;-53
2022/04/14 09:50:24;;;;;;;24.58;21.60;;;;;;;;;;5088694;28;24449;-52
2022/04/14 09:52:56;;;;;;;25.27;22.65;;;;;;;;;;5088614;28;24412;-53
2022/04/14 09:55:21;;;;;;;23.88;21.38;;;;;;;;;;5086447;28;24445;-53
2022/04/14 09:58:03;;;;;;;27.73;24.73;;;;;;;;;;5088875;28;24606;-53
2022/04/14 10:00:35;;;;;;;26.90;24.10;;;;;;;;;;5088919;28;24413;-53
2022/04/14 10:03:07;;;;;;;24.30;21.70;;;;;;;;;;5088977;28;24481;-53
2022/04/14 10:05:34;;;;;;;25.10;22.40;;;;;;;;;;5086800;28;24500;-53
2022/04/14 10:07:59;;;;;;;26.05;23.42;;;;;;;;;;5088218;28;24387;-53
2022/04/14 10:10:24;;;;;;;24.58;21.98;;;;;;;;;;5088832;28;24428;-53
2022/04/14 10:12:49;;;;;;;25.57;22.87;;;;;;;;;;5088433;28;24947;-52
2022/04/14 10:15:16;;;;;;;25.40;21.73;;;;;;;;;;5088311;28;24394;-52
2022/04/14 10:17:41;;;;;;;25.00;22.30;;;;;;;;;;5086512;28;24552;-53
2022/04/14 10:20:10;;;;;;;24.80;20.90;;;;;;;;;;5088075;28;24539;-53
2022/04/14 10:22:36;;;;;;;25.05;21.40;;;;;;;;;;5088050;28;24371;-54
2022/04/14 10:25:02;;;;;;;25.02;21.60;;;;;;;;;;5088108;28;24490;-53
2022/04/14 10:27:27;;;;;;;26.33;23.42;;;;;;;;;;5086660;28;24532;-53
2022/04/14 10:29:52;;;;;;;25.30;22.60;;;;;;;;;;5087868;28;24890;-53
2022/04/14 10:32:18;;;;;;;23.85;21.42;;;;;;;;;;5074573;28;24983;-53
2022/04/14 10:34:44;;;;;;;24.03;21.43;;;;;;;;;;5068172;28;24418;-53
2022/04/14 10:37:13;;;;;;;26.80;23.10;;;;;;;;;;5067728;28;24394;-53
2022/04/14 10:39:41;;;;;;;25.30;22.80;;;;;;;;;;5067654;28;24406;-53
2022/04/14 10:42:08;;;;;;;25.83;23.08;;;;;;;;;;5069159;28;25099;-53
2022/04/14 10:44:44;;;;;;;25.05;22.48;;;;;;;;;;5088109;28;24970;-53
2022/04/14 10:47:09;;;;;;;26.30;23.40;;;;;;;;;;5087717;28;24405;-52
2022/04/14 10:49:34;;;;;;;26.02;23.23;;;;;;;;;;5087981;28;24386;-53
2022/04/14 10:52:19;;;;;;;26.90;23.97;;;;;;;;;;5087664;28;24558;-53
2022/04/14 10:55:01;;;;;;;26.48;23.77;;;;;;;;;;5084852;28;24498;-53
2022/04/14 10:57:36;;;;;;;24.20;21.70;;;;;;;;;;5087820;28;24395;-53
2022/04/14 11:00:02;;;;;;;23.63;21.23;;;;;;;;;;5087697;28;24398;-53
2022/04/14 11:02:47;;;;;;;25.03;22.43;;;;;;;;;;5087342;28;24390;-53
2022/04/14 11:05:32;;;;;;;24.57;21.57;;;;;;;;;;5085913;28;24955;-53
2022/04/14 11:08:16;;;;;;;24.17;21.75;;;;;;;;;;5067364;28;24418;-53
2022/04/14 11:10:51;;;;;;;25.47;22.87;;;;;;;;;;5067321;28;24526;-53
2022/04/14 11:13:16;;;;;;;24.38;21.75;;;;;;;;;;5066738;28;24548;-53
2022/04/14 11:15:41;;;;;;;25.17;21.23;;;;;;;;;;5067105;28;25211;-53
2022/04/14 11:18:07;;;;;;;22.67;20.35;;;;;;;;;;5069576;28;24410;-54
2022/04/14 11:20:37;;;;;;;23.20;20.80;;;;;;;;;;5067005;28;24449;-53
2022/04/14 11:23:09;;;;;;;22.52;20.30;;;;;;;;;;5066566;28;24447;-53
2022/04/14 11:25:43;;;;;;;22.67;20.37;;;;;;;;;;5066991;28;24990;-53
2022/04/14 11:28:22;;;;;;;23.38;21.00;;;;;;;;;;5066605;28;24424;-53
2022/04/14 11:30:52;;;;;;;21.17;19.17;;;;;;;;;;5066808;28;24449;-53
2022/04/14 11:33:28;;;;;;;21.10;19.10;;;;;;;;;;5066041;28;24379;-53
2022/04/14 11:35:53;;;;;;;23.25;20.85;;;;;;;;;;5067074;28;24403;-53
2022/04/14 11:38:37;;;;;;;22.23;20.00;;;;;;;;;;5066615;28;24410;-52
2022/04/14 11:41:02;;;;;;;21.23;19.17;;;;;;;;;;5066512;28;24402;-51
2022/04/14 11:43:27;;;;;;;21.90;19.77;;;;;;;;;;5064709;28;24409;-52
2022/04/14 11:45:52;;;;;;;21.67;19.37;;;;;;;;;;5066801;28;24955;-51
2022/04/14 11:48:18;;;;;;;22.83;20.43;;;;;;;;;;5086188;28;24562;-53
2022/04/14 11:50:43;;;;;;;24.07;19.80;;;;;;;;;;5084436;28;24482;-52
2022/04/14 11:53:09;;;;;;;20.23;18.10;;;;;;;;;;5082998;28;24517;-52
2022/04/14 11:55:34;;;;;;;19.45;17.40;;;;;;;;;;5086953;28;24409;-52
2022/04/14 11:58:03;;;;;;;20.10;18.20;;;;;;;;;;5087392;28;24405;-53
2022/04/14 12:00:28;;;;;;;19.00;17.30;;;;;;;;;;5086799;28;24402;-53
2022/04/14 12:02:57;;;;;;;17.10;15.52;;;;;;;;;;5072195;28;24472;-51
2022/04/14 12:05:22;;;;;;;19.60;17.90;;;;;;;;;;5066595;28;24403;-52
2022/04/14 12:07:48;;;;;;;17.60;16.00;;;;;;;;;;5067254;28;24398;-53
2022/04/14 12:10:13;;;;;;;18.50;16.80;;;;;;;;;;5066334;28;24406;-53
2022/04/14 12:12:39;;;;;;;16.20;14.70;;;;;;;;;;5066586;28;24496;-53
2022/04/14 12:15:05;;;;;;;18.30;16.60;;;;;;;;;;5078921;28;25009;-53
2022/04/14 12:17:31;;;;;;;19.10;17.20;;;;;;;;;;5086751;28;24470;-52
2022/04/14 12:20:04;;;;;;;17.43;15.77;;;;;;;;;;5086431;28;24433;-51
2022/04/14 12:22:31;;;;;;;15.30;13.90;;;;;;;;;;5086459;28;24522;-53
2022/04/14 12:25:00;;;;;;;17.27;15.70;;;;;;;;;;5084252;28;24410;-54
2022/04/14 12:27:28;;;;;;;14.77;13.40;;;;;;;;;;5086675;28;24386;-53
2022/04/14 12:29:54;;;;;;;14.80;13.50;;;;;;;;;;5086830;28;24418;-52
2022/04/14 12:32:23;;;;;;;16.10;14.70;;;;;;;;;;5086215;28;24448;-53
2022/04/14 12:34:48;;;;;;;15.35;13.95;;;;;;;;;;5086257;28;24382;-53
2022/04/14 12:37:13;;;;;;;16.30;14.80;;;;;;;;;;5084881;28;24416;-53
2022/04/14 12:39:58;;;;;;;17.63;16.10;;;;;;;;;;5086553;28;24402;-53
2022/04/14 12:42:25;;;;;;;14.85;13.55;;;;;;;;;;5086055;28;24434;-53
2022/04/14 12:44:50;;;;;;;12.20;11.00;;;;;;;;;;5088762;28;24533;-52
2022/04/14 12:47:15;;;;;;;13.77;12.67;;;;;;;;;;5090088;28;25054;-52
2022/04/14 12:49:41;;;;;;;12.83;11.73;;;;;;;;;;5088333;28;24414;-53
2022/04/14 12:52:07;;;;;;;12.85;11.75;;;;;;;;;;5090005;28;24661;-53
2022/04/14 12:54:34;;;;;;;10.70;9.70;;;;;;;;;;5089856;28;24397;-53
2022/04/14 12:57:07;;;;;;;11.38;10.38;;;;;;;;;;5090531;28;24398;-53
2022/04/14 12:59:33;;;;;;;12.65;11.60;;;;;;;;;;5089614;28;24451;-53
2022/04/14 13:02:01;;;;;;;12.00;10.95;;;;;;;;;;5088129;28;24407;-51
2022/04/14 13:04:36;;;;;;;10.75;9.85;;;;;;;;;;5083414;28;25003;-52
2022/04/14 13:07:04;;;;;;;10.60;9.70;;;;;;;;;;5069650;28;24528;-52
2022/04/14 13:09:30;;;;;;;9.40;8.50;;;;;;;;;;5069763;28;24448;-52
2022/04/14 13:11:55;;;;;;;10.40;8.80;;;;;;;;;;5069513;28;24414;-53
2022/04/14 13:14:25;;;;;;;8.80;8.00;;;;;;;;;;5083156;28;24405;-52
2022/04/14 13:16:52;;;;;;;8.38;7.55;;;;;;;;;;5090015;28;24790;-52
2022/04/14 13:19:17;;;;;;;7.65;6.85;;;;;;;;;;5089702;28;24485;-52
2022/04/14 13:21:43;;;;;;;6.60;6.10;;;;;;;;;;5089532;28;24478;-53
2022/04/14 13:24:08;;;;;;;5.63;5.13;;;;;;;;;;5089408;28;24936;-52
2022/04/14 13:26:34;;;;;;;8.13;7.43;;;;;;;;;;5087079;28;24414;-52
2022/04/14 13:29:00;;;;;;;8.35;7.10;;;;;;;;;;5089593;28;24496;-53
2022/04/14 13:31:25;;;;;;;7.65;6.90;;;;;;;;;;5088931;28;24434;-53
2022/04/14 13:33:50;;;;;;;7.87;6.37;;;;;;;;;;5089192;28;24424;-53
2022/04/14 13:36:15;;;;;;;6.88;6.18;;;;;;;;;;5079511;28;25034;-52
2022/04/14 13:38:41;;;;;;;7.40;5.45;;;;;;;;;;5069125;28;25175;-53
2022/04/14 13:41:06;;;;;;;6.40;5.68;;;;;;;;;;5069109;28;24474;-54
2022/04/14 13:43:31;;;;;;;6.30;5.70;;;;;;;;;;5071191;28;24406;-52
2022/04/14 13:45:56;;;;;;;6.50;5.90;;;;;;;;;;5089110;28;24394;-52
2022/04/14 13:48:21;;;;;;;5.57;5.07;;;;;;;;;;5088959;28;24403;-52
2022/04/14 13:50:47;;;;;;;7.10;6.00;;;;;;;;;;5086818;28;24427;-55
2022/04/14 13:53:13;;;;;;;6.23;5.60;;;;;;;;;;5088797;28;24448;-53
2022/04/14 13:55:38;;;;;;;5.63;5.13;;;;;;;;;;5087975;28;24474;-53
2022/04/14 13:58:04;;;;;;;6.20;5.30;;;;;;;;;;5089095;28;24501;-53
2022/04/14 14:00:29;;;;;;;6.93;5.10;;;;;;;;;;5088770;28;24454;-53
2022/04/14 14:02:54;;;;;;;6.10;5.22;;;;;;;;;;5088593;28;24410;-52
2022/04/14 14:05:19;;;;;;;8.38;4.82;;;;;;;;;;5070902;28;25239;-54
2022/04/14 14:07:44;;;;;;;4.80;4.20;;;;;;;;;;5068772;28;24928;-53
2022/04/14 14:10:09;;;;;;;5.50;4.10;;;;;;;;;;5070787;28;25029;-52
2022/04/14 14:12:39;;;;;;;5.10;4.57;;;;;;;;;;5067054;28;24429;-53
2022/04/14 14:15:04;;;;;;;5.03;4.53;;;;;;;;;;5073534;28;24474;-53
2022/04/14 14:17:29;;;;;;;5.00;4.33;;;;;;;;;;5079532;28;24495;-54
2022/04/14 14:19:55;;;;;;;5.40;4.70;;;;;;;;;;5068469;28;25022;-53
2022/04/14 14:22:20;;;;;;;5.32;4.35;;;;;;;;;;5075074;28;24452;-53